Time,TemperatureF,DewpointF,PressureIn,WindDirection,WindDirectionDegrees,WindSpeedMPH,WindSpeedGustMPH,Humidity,HourlyPrecipIn,Conditions,Clouds,dailyrainin,SoftwareType,DateUTC
2013-07-28 00:04:00,66.0,56.0,29.97,WNW,302,0.0,3.0,70,0.00,,,0.00,weatherlink.com 1.10,2013-07-28 04:04:00,
2013-07-28 00:19:00,66.0,56.0,29.97,West,274,0.0,4.0,70,0.00,,,0.00,weatherlink.com 1.10,2013-07-28 04:19:00,
2013-07-28 00:34:00,65.6,55.0,29.98,NNE,32,3.0,6.0,69,0.00,,,0.00,weatherlink.com 1.10,2013-07-28 04:34:00,
2013-07-28 00:49:00,65.0,55.0,29.98,NE,49,4.0,5.0,70,0.00,,,0.00,weatherlink.com 1.10,2013-07-28 04:49:00,
2013-07-28 01:04:00,64.5,55.0,29.99,NE,44,3.0,7.0,70,0.00,,,0.00,weatherlink.com 1.10,2013-07-28 05:04:00,
2013-07-28 01:19:00,63.9,54.0,29.99,NNE,12,0.0,3.0,70,0.00,,,0.00,weatherlink.com 1.10,2013-07-28 05:19:00,
2013-07-28 01:34:00,63.0,53.0,29.99,NW,308,0.0,2.0,71,0.00,,,0.00,weatherlink.com 1.10,2013-07-28 05:34:00,
2013-07-28 01:50:00,62.3,53.0,29.99,North,354,0.0,1.0,71,0.00,,,0.00,weatherlink.com 1.10,2013-07-28 05:50:00,
2013-07-28 02:05:00,61.7,53.0,29.99,ENE,69,0.0,1.0,72,0.00,,,0.00,weatherlink.com 1.10,2013-07-28 06:05:00,
2013-07-28 02:20:00,60.9,53.0,29.99,West,262,0.0,2.0,74,0.00,,,0.00,weatherlink.com 1.10,2013-07-28 06:20:00,
2013-07-28 02:35:00,60.2,53.0,29.99,North,4,0.0,1.0,76,0.00,,,0.00,weatherlink.com 1.10,2013-07-28 06:35:00,
2013-07-28 02:50:00,59.6,53.0,29.99,WNW,290,0.0,1.0,78,0.00,,,0.00,weatherlink.com 1.10,2013-07-28 06:50:00,
2013-07-28 03:05:00,58.9,53.0,29.99,WNW,295,0.0,2.0,80,0.00,,,0.00,weatherlink.com 1.10,2013-07-28 07:05:00,
2013-07-28 03:20:00,58.3,52.0,30.00,WNW,285,0.0,1.0,80,0.00,,,0.00,weatherlink.com 1.10,2013-07-28 07:20:00,
2013-07-28 03:35:00,58.1,52.0,29.99,West,272,0.0,2.0,79,0.00,,,0.00,weatherlink.com 1.10,2013-07-28 07:35:00,
2013-07-28 03:50:00,57.7,51.0,29.99,North,352,0.0,1.0,79,0.00,,,0.00,weatherlink.com 1.10,2013-07-28 07:50:00,
2013-07-28 04:05:00,57.2,51.0,30.00,West,274,0.0,1.0,80,0.00,,,0.00,weatherlink.com 1.10,2013-07-28 08:05:00,
2013-07-28 04:20:00,56.6,51.0,30.00,West,276,0.0,1.0,82,0.00,,,0.00,weatherlink.com 1.10,2013-07-28 08:20:00,
2013-07-28 04:35:00,55.8,51.0,30.00,West,276,0.0,1.0,84,0.00,,,0.00,weatherlink.com 1.10,2013-07-28 08:35:00,
2013-07-28 04:50:00,55.1,51.0,30.00,West,276,0.0,1.0,86,0.00,,,0.00,weatherlink.com 1.10,2013-07-28 08:50:00,
2013-07-28 05:05:00,54.3,51.0,30.00,West,276,0.0,0.0,88,0.00,,,0.00,weatherlink.com 1.10,2013-07-28 09:05:00,
2013-07-28 05:20:00,53.7,51.0,30.00,West,276,0.0,0.0,89,0.00,,,0.00,weatherlink.com 1.10,2013-07-28 09:20:00,
2013-07-28 05:35:00,53.3,51.0,30.00,West,276,0.0,1.0,90,0.00,,,0.00,weatherlink.com 1.10,2013-07-28 09:35:00,
2013-07-28 05:50:00,53.1,51.0,30.01,West,276,0.0,0.0,91,0.00,,,0.00,weatherlink.com 1.10,2013-07-28 09:50:00,
2013-07-28 06:05:00,52.7,50.0,30.02,West,276,0.0,0.0,91,0.00,,,0.00,weatherlink.com 1.10,2013-07-28 10:05:00,
2013-07-28 06:20:00,52.5,50.0,30.02,West,276,0.0,0.0,92,0.00,,,0.00,weatherlink.com 1.10,2013-07-28 10:20:00,
2013-07-28 06:35:00,52.2,50.0,30.03,West,276,0.0,0.0,92,0.00,,,0.00,weatherlink.com 1.10,2013-07-28 10:35:00,
2013-07-28 06:50:00,52.1,50.0,30.04,West,276,0.0,0.0,93,0.00,,,0.00,weatherlink.com 1.10,2013-07-28 10:50:00,
2013-07-28 07:05:00,51.9,50.0,30.04,West,276,0.0,0.0,93,0.00,,,0.00,weatherlink.com 1.10,2013-07-28 11:05:00,
2013-07-28 07:20:00,51.8,50.0,30.05,West,275,0.0,0.0,94,0.00,,,0.00,weatherlink.com 1.10,2013-07-28 11:20:00,
2013-07-28 07:35:00,53.1,52.0,30.05,West,276,0.0,0.0,95,0.00,,,0.00,weatherlink.com 1.10,2013-07-28 11:35:00,
2013-07-28 07:50:00,55.8,53.0,30.05,West,277,1.0,1.0,90,0.00,,,0.00,weatherlink.com 1.10,2013-07-28 11:50:00,
2013-07-28 08:05:00,57.8,53.0,30.06,WNW,295,1.0,2.0,84,0.00,,,0.00,weatherlink.com 1.10,2013-07-28 12:05:00,
2013-07-28 08:21:00,58.8,53.0,30.06,SW,229,1.0,2.0,82,0.00,,,0.00,weatherlink.com 1.10,2013-07-28 12:21:00,
2013-07-28 08:38:00,60.6,54.0,30.06,SW,231,2.0,3.0,79,0.00,,,0.00,weatherlink.com 1.10,2013-07-28 12:38:00,
2013-07-28 08:50:00,61.6,54.0,30.05,WNW,293,0.0,2.0,77,0.00,,,0.00,weatherlink.com 1.10,2013-07-28 12:50:00,
2013-07-28 09:05:00,63.0,55.0,30.05,North,359,0.0,1.0,74,0.00,,,0.00,weatherlink.com 1.10,2013-07-28 13:05:00,
2013-07-28 09:21:00,65.2,54.0,30.05,SW,224,0.0,2.0,67,0.00,,,0.00,weatherlink.com 1.10,2013-07-28 13:21:00,
2013-07-28 09:36:00,65.8,51.0,30.06,NNW,329,0.0,2.0,60,0.00,,,0.00,weatherlink.com 1.10,2013-07-28 13:36:00,
2013-07-28 09:51:00,66.3,52.0,30.06,WSW,238,1.0,4.0,61,0.00,,,0.00,weatherlink.com 1.10,2013-07-28 13:51:00,
2013-07-28 10:06:00,67.3,52.0,30.07,NNE,33,0.0,3.0,58,0.00,,,0.00,weatherlink.com 1.10,2013-07-28 14:06:00,
2013-07-28 10:21:00,68.2,51.0,30.07,ENE,78,1.0,3.0,54,0.00,,,0.00,weatherlink.com 1.10,2013-07-28 14:21:00,
2013-07-28 10:36:00,69.1,51.0,30.07,ENE,77,2.0,10.0,53,0.00,,,0.00,weatherlink.com 1.10,2013-07-28 14:36:00,
2013-07-28 10:51:00,69.6,51.0,30.08,NNW,331,2.0,5.0,52,0.00,,,0.00,weatherlink.com 1.10,2013-07-28 14:51:00,
2013-07-28 11:06:00,70.3,52.0,30.08,ENE,74,1.0,4.0,52,0.00,,,0.00,weatherlink.com 1.10,2013-07-28 15:06:00,
2013-07-28 11:21:00,70.5,50.0,30.08,NE,53,1.0,8.0,49,0.00,,,0.00,weatherlink.com 1.10,2013-07-28 15:21:00,
2013-07-28 11:36:00,69.7,52.0,30.08,NNE,18,4.0,7.0,53,0.00,,,0.00,weatherlink.com 1.10,2013-07-28 15:36:00,
2013-07-28 11:51:00,71.0,52.0,30.07,SW,221,1.0,4.0,51,0.00,,,0.00,weatherlink.com 1.10,2013-07-28 15:51:00,
2013-07-28 12:06:00,71.6,51.0,30.07,WNW,295,3.0,6.0,49,0.00,,,0.00,weatherlink.com 1.10,2013-07-28 16:06:00,
2013-07-28 12:21:00,72.5,52.0,30.07,East,87,0.0,6.0,48,0.00,,,0.00,weatherlink.com 1.10,2013-07-28 16:21:00,
2013-07-28 12:36:00,72.9,51.0,30.07,North,4,4.0,6.0,47,0.00,,,0.00,weatherlink.com 1.10,2013-07-28 16:36:00,
2013-07-28 12:51:00,71.4,52.0,30.07,SW,222,3.0,7.0,50,0.00,,,0.00,weatherlink.com 1.10,2013-07-28 16:51:00,
2013-07-28 13:06:00,73.5,52.0,30.07,WNW,283,3.0,7.0,47,0.00,,,0.00,weatherlink.com 1.10,2013-07-28 17:06:00,
2013-07-28 13:51:00,74.0,51.0,30.05,WNW,283,1.0,8.0,45,0.00,,,0.00,weatherlink.com 1.10,2013-07-28 17:51:00,
2013-07-28 14:06:00,74.5,52.0,30.05,NE,34,0.0,7.0,45,0.00,,,0.00,weatherlink.com 1.10,2013-07-28 18:06:00,
2013-07-28 14:21:00,74.6,52.0,30.05,SSW,211,1.0,8.0,46,0.00,,,0.00,weatherlink.com 1.10,2013-07-28 18:21:00,
2013-07-28 14:36:00,74.3,52.0,30.05,WNW,285,2.0,7.0,46,0.00,,,0.00,weatherlink.com 1.10,2013-07-28 18:36:00,
2013-07-28 14:51:00,76.2,52.0,30.05,WSW,245,1.0,6.0,43,0.00,,,0.00,weatherlink.com 1.10,2013-07-28 18:51:00,
2013-07-28 15:07:00,75.6,52.0,30.05,West,267,2.0,11.0,44,0.00,,,0.00,weatherlink.com 1.10,2013-07-28 19:07:00,
2013-07-28 15:21:00,77.0,53.0,30.05,South,174,0.0,4.0,43,0.00,,,0.00,weatherlink.com 1.10,2013-07-28 19:21:00,
2013-07-28 15:36:00,75.4,52.0,30.04,WNW,293,2.0,12.0,44,0.00,,,0.00,weatherlink.com 1.10,2013-07-28 19:36:00,
2013-07-28 15:51:00,76.4,53.0,30.04,WNW,295,0.0,8.0,44,0.00,,,0.00,weatherlink.com 1.10,2013-07-28 19:51:00,
2013-07-28 16:06:00,76.7,53.0,30.04,South,179,4.0,7.0,44,0.00,,,0.00,weatherlink.com 1.10,2013-07-28 20:06:00,
2013-07-28 16:21:00,76.1,52.0,30.03,South,172,0.0,11.0,43,0.00,,,0.00,weatherlink.com 1.10,2013-07-28 20:21:00,
2013-07-28 16:36:00,77.7,51.0,30.03,NE,39,4.0,10.0,39,0.00,,,0.00,weatherlink.com 1.10,2013-07-28 20:36:00,
2013-07-28 16:51:00,77.1,52.0,30.04,South,169,1.0,8.0,42,0.00,,,0.00,weatherlink.com 1.10,2013-07-28 20:51:00,
2013-07-28 17:06:00,77.8,52.0,30.04,WSW,238,4.0,9.0,41,0.00,,,0.00,weatherlink.com 1.10,2013-07-28 21:06:00,
2013-07-28 17:22:00,77.4,52.0,30.04,ENE,71,0.0,8.0,42,0.00,,,0.00,weatherlink.com 1.10,2013-07-28 21:22:00,
2013-07-28 17:36:00,78.3,53.0,30.04,ESE,122,3.0,10.0,42,0.00,,,0.00,weatherlink.com 1.10,2013-07-28 21:36:00,
2013-07-28 17:51:00,78.1,53.0,30.04,South,190,3.0,8.0,42,0.00,,,0.00,weatherlink.com 1.10,2013-07-28 21:51:00,
2013-07-28 18:06:00,78.7,52.0,30.04,WSW,252,0.0,4.0,40,0.00,,,0.00,weatherlink.com 1.10,2013-07-28 22:06:00,
2013-07-28 18:22:00,78.0,52.0,30.04,West,278,3.0,7.0,41,0.00,,,0.00,weatherlink.com 1.10,2013-07-28 22:22:00,
2013-07-28 18:37:00,77.4,53.0,30.04,WNW,293,1.0,9.0,43,0.00,,,0.00,weatherlink.com 1.10,2013-07-28 22:37:00,
2013-07-28 18:52:00,77.5,53.0,30.05,WNW,284,1.0,4.0,42,0.00,,,0.00,weatherlink.com 1.10,2013-07-28 22:52:00,
2013-07-28 19:07:00,77.9,54.0,30.05,West,260,1.0,3.0,43,0.00,,,0.00,weatherlink.com 1.10,2013-07-28 23:07:00,
2013-07-28 19:22:00,78.0,54.0,30.05,North,358,1.0,3.0,44,0.00,,,0.00,weatherlink.com 1.10,2013-07-28 23:22:00,
2013-07-28 19:37:00,77.2,53.0,30.05,NW,305,0.0,5.0,43,0.00,,,0.00,weatherlink.com 1.10,2013-07-28 23:37:00,
2013-07-28 19:52:00,75.2,54.0,30.06,NE,39,0.0,3.0,48,0.00,,,0.00,weatherlink.com 1.10,2013-07-28 23:52:00,
2013-07-28 20:07:00,73.8,54.0,30.07,ENE,58,0.0,4.0,51,0.00,,,0.00,weatherlink.com 1.10,2013-07-29 00:07:00,
2013-07-28 20:43:00,71.4,56.0,30.07,WSW,240,0.0,1.0,58,0.00,,,0.00,weatherlink.com 1.10,2013-07-29 00:43:00,
2013-07-28 20:52:00,69.9,57.0,30.07,WSW,240,0.0,1.0,64,0.00,,,0.00,weatherlink.com 1.10,2013-07-29 00:52:00,
2013-07-28 21:07:00,67.3,57.0,30.07,WSW,240,0.0,0.0,69,0.00,,,0.00,weatherlink.com 1.10,2013-07-29 01:07:00,
2013-07-28 21:22:00,66.1,57.0,30.07,WSW,240,0.0,0.0,72,0.00,,,0.00,weatherlink.com 1.10,2013-07-29 01:22:00,
2013-07-28 21:37:00,65.1,56.0,30.08,WSW,240,0.0,1.0,73,0.00,,,0.00,weatherlink.com 1.10,2013-07-29 01:37:00,
2013-07-28 21:52:00,64.7,56.0,30.08,WSW,240,0.0,0.0,74,0.00,,,0.00,weatherlink.com 1.10,2013-07-29 01:52:00,
2013-07-28 23:07:00,62.4,55.0,30.09,WSW,241,0.0,0.0,77,0.00,,,0.00,weatherlink.com 1.10,2013-07-29 03:07:00,
2013-07-28 23:22:00,61.8,55.0,30.10,WSW,240,0.0,0.0,78,0.00,,,0.00,weatherlink.com 1.10,2013-07-29 03:22:00,
2013-07-28 23:37:00,61.3,55.0,30.10,WSW,240,0.0,0.0,79,0.00,,,0.00,weatherlink.com 1.10,2013-07-29 03:37:00,
2013-07-28 23:52:00,61.1,55.0,30.10,WSW,240,0.0,0.0,79,0.00,,,0.00,weatherlink.com 1.10,2013-07-29 03:52:00,